Time;durP1;ratioP1;P1;durP2;ratioP2;P2;SDS_P1;SDS_P2;PMS_P1;PMS_P2;Temp;Humidity;BMP_temperature;BMP_pressure;BME280_temperature;BME280_humidity;BME280_pressure;Samples;Min_cycle;Max_cycle;Signal;HPM_P1;HPM_P2
2022/10/22 05:18:28;;;;;;;42.63;27.15;;;;;;;;;;6186678;22;20322;-83
2022/10/22 05:20:54;;;;;;;47.58;30.27;;;;;;;;;;6247959;22;20048;-83
2022/10/22 05:23:19;;;;;;;44.72;27.05;;;;;;;;;;6248485;23;20004;-84
2022/10/22 05:25:44;;;;;;;45.10;28.20;;;;;;;;;;6246769;23;20007;-84
2022/10/22 05:28:10;;;;;;;43.63;27.15;;;;;;;;;;6248083;23;20059;-86
2022/10/22 05:30:35;;;;;;;41.50;25.95;;;;;;;;;;6220956;23;20031;-85
2022/10/22 05:33:01;;;;;;;50.95;31.25;;;;;;;;;;6247781;23;20034;-85
2022/10/22 05:35:26;;;;;;;40.83;25.42;;;;;;;;;;6247604;23;20004;-84
2022/10/22 05:37:52;;;;;;;40.58;25.67;;;;;;;;;;6248081;23;20091;-84
2022/10/22 05:40:18;;;;;;;45.25;27.77;;;;;;;;;;6247711;22;20061;-84
2022/10/22 05:42:43;;;;;;;42.45;27.80;;;;;;;;;;6249086;23;20065;-83
2022/10/22 05:45:09;;;;;;;47.92;29.95;;;;;;;;;;6247818;23;20431;-84
2022/10/22 05:47:34;;;;;;;48.08;30.73;;;;;;;;;;6221269;23;20039;-84
2022/10/22 05:50:00;;;;;;;44.88;28.45;;;;;;;;;;6247746;22;20011;-84
2022/10/22 05:52:25;;;;;;;43.75;27.05;;;;;;;;;;6247871;23;20330;-84
2022/10/22 05:54:51;;;;;;;43.95;26.83;;;;;;;;;;6247240;23;20435;-84
2022/10/22 05:57:16;;;;;;;47.05;28.02;;;;;;;;;;6247517;23;20008;-85
2022/10/22 05:59:42;;;;;;;49.35;29.40;;;;;;;;;;6247340;22;20420;-85
2022/10/22 06:02:10;;;;;;;46.17;29.70;;;;;;;;;;6247492;23;20511;-85
2022/10/22 06:04:36;;;;;;;46.97;30.42;;;;;;;;;;6248044;23;20055;-84
2022/10/22 06:07:01;;;;;;;54.15;32.85;;;;;;;;;;6247909;23;20000;-85
2022/10/22 06:09:34;;;;;;;51.80;31.75;;;;;;;;;;6254794;23;20000;-85
2022/10/22 06:12:00;;;;;;;47.83;28.35;;;;;;;;;;6256677;22;20011;-87
2022/10/22 06:14:26;;;;;;;45.05;27.00;;;;;;;;;;6256908;23;20382;-85
2022/10/22 06:16:52;;;;;;;43.22;28.58;;;;;;;;;;6255312;23;20004;-87
2022/10/22 06:19:20;;;;;;;47.13;28.92;;;;;;;;;;6252838;23;20014;-88
2022/10/22 06:21:46;;;;;;;41.97;26.55;;;;;;;;;;6250616;22;20159;-83
2022/10/22 06:24:13;;;;;;;44.05;27.08;;;;;;;;;;6247831;23;20059;-81
2022/10/22 06:26:38;;;;;;;44.03;27.17;;;;;;;;;;6248053;23;20348;-81
2022/10/22 06:29:04;;;;;;;40.72;24.63;;;;;;;;;;6247978;23;20011;-83
2022/10/22 06:31:35;;;;;;;40.25;26.65;;;;;;;;;;6222236;23;20012;-83
2022/10/22 06:34:06;;;;;;;42.58;26.85;;;;;;;;;;6221909;23;20419;-82
2022/10/22 06:36:32;;;;;;;41.30;25.88;;;;;;;;;;6250368;23;20004;-83
2022/10/22 06:38:57;;;;;;;47.45;27.95;;;;;;;;;;6248030;23;20301;-82
2022/10/22 06:41:23;;;;;;;42.65;27.50;;;;;;;;;;6246331;22;20023;-84
2022/10/22 06:43:49;;;;;;;36.20;24.33;;;;;;;;;;6247012;23;20088;-82
2022/10/22 06:46:17;;;;;;;34.72;22.73;;;;;;;;;;6247559;23;20000;-81
2022/10/22 06:48:46;;;;;;;42.83;25.95;;;;;;;;;;6247323;23;20007;-81
2022/10/22 06:51:12;;;;;;;40.72;25.33;;;;;;;;;;6247592;22;20078;-81
2022/10/22 06:53:39;;;;;;;36.38;22.88;;;;;;;;;;6247494;23;20004;-82
2022/10/22 06:56:09;;;;;;;38.83;25.02;;;;;;;;;;6249107;23;20027;-82
2022/10/22 06:58:35;;;;;;;43.20;24.55;;;;;;;;;;6248094;23;20026;-83
2022/10/22 07:01:10;;;;;;;39.33;24.75;;;;;;;;;;6247179;22;20420;-80
2022/10/22 07:03:36;;;;;;;40.28;25.05;;;;;;;;;;6247272;23;20416;-81
2022/10/22 07:06:04;;;;;;;48.83;28.02;;;;;;;;;;6247026;23;20062;-80
2022/10/22 07:08:30;;;;;;;46.50;28.48;;;;;;;;;;6247059;23;20000;-80
2022/10/22 07:10:57;;;;;;;47.47;28.10;;;;;;;;;;6246787;22;20008;-81
2022/10/22 07:13:23;;;;;;;47.55;28.33;;;;;;;;;;6246845;23;20004;-80
2022/10/22 07:15:53;;;;;;;46.58;28.27;;;;;;;;;;6246737;23;20083;-81
2022/10/22 07:18:19;;;;;;;44.92;27.55;;;;;;;;;;6246907;23;20020;-81
2022/10/22 07:20:46;;;;;;;43.40;26.55;;;;;;;;;;6246645;22;20023;-80
2022/10/22 07:23:12;;;;;;;44.38;26.50;;;;;;;;;;6246640;23;20011;-80
2022/10/22 07:25:37;;;;;;;42.13;26.15;;;;;;;;;;6246848;23;20000;-80
2022/10/22 07:28:03;;;;;;;44.13;28.25;;;;;;;;;;6246829;23;20103;-81
2022/10/22 07:30:28;;;;;;;42.97;26.85;;;;;;;;;;6219875;23;20027;-80
2022/10/22 07:32:54;;;;;;;46.47;28.10;;;;;;;;;;6246765;23;20095;-81
2022/10/22 07:35:19;;;;;;;41.92;27.20;;;;;;;;;;6247040;23;20004;-81
2022/10/22 07:37:44;;;;;;;41.15;26.48;;;;;;;;;;6246626;23;20099;-81
2022/10/22 07:40:10;;;;;;;38.95;25.45;;;;;;;;;;6246579;22;20058;-80
2022/10/22 07:42:36;;;;;;;39.85;25.67;;;;;;;;;;6246957;23;20008;-81
2022/10/22 07:45:01;;;;;;;39.90;25.50;;;;;;;;;;6246935;23;20301;-81
2022/10/22 07:47:27;;;;;;;43.15;26.60;;;;;;;;;;6246599;23;20032;-81
2022/10/22 07:49:52;;;;;;;43.13;27.30;;;;;;;;;;6246597;22;20027;-81
2022/10/22 07:52:18;;;;;;;39.20;25.50;;;;;;;;;;6246920;23;20423;-81
2022/10/22 07:54:43;;;;;;;41.83;25.77;;;;;;;;;;6246569;23;20301;-81
2022/10/22 07:57:08;;;;;;;45.67;27.33;;;;;;;;;;6246880;23;20075;-80
2022/10/22 07:59:34;;;;;;;41.20;26.20;;;;;;;;;;6219387;23;20012;-82
2022/10/22 08:01:59;;;;;;;47.60;28.10;;;;;;;;;;6246703;22;20040;-79
2022/10/22 08:04:25;;;;;;;41.78;27.73;;;;;;;;;;6246834;23;20000;-80
2022/10/22 08:06:50;;;;;;;46.60;27.15;;;;;;;;;;6246809;23;20004;-81
2022/10/22 08:09:15;;;;;;;44.63;27.90;;;;;;;;;;6246297;23;20000;-81
2022/10/22 08:11:41;;;;;;;43.90;25.88;;;;;;;;;;6246069;22;20004;-81
2022/10/22 08:14:06;;;;;;;38.20;24.98;;;;;;;;;;6246622;23;20001;-78
2022/10/22 08:16:32;;;;;;;36.20;23.38;;;;;;;;;;6246472;23;20471;-78
2022/10/22 08:18:57;;;;;;;46.05;27.67;;;;;;;;;;6246148;23;20035;-77
2022/10/22 08:21:23;;;;;;;37.30;23.98;;;;;;;;;;6246157;22;20371;-78
2022/10/22 08:23:48;;;;;;;40.92;26.08;;;;;;;;;;6246181;23;20331;-78
2022/10/22 08:26:13;;;;;;;41.47;26.45;;;;;;;;;;6246388;23;20000;-78
2022/10/22 08:28:39;;;;;;;37.00;25.52;;;;;;;;;;6246305;23;20028;-80
2022/10/22 08:31:06;;;;;;;38.03;25.17;;;;;;;;;;6245907;22;20324;-78
2022/10/22 08:33:32;;;;;;;42.65;26.67;;;;;;;;;;6246112;23;20000;-80
2022/10/22 08:35:58;;;;;;;39.58;26.40;;;;;;;;;;6246206;23;20001;-80
2022/10/22 08:38:23;;;;;;;39.53;24.95;;;;;;;;;;6246253;23;20070;-78
2022/10/22 08:40:53;;;;;;;39.17;24.35;;;;;;;;;;6246295;22;20004;-80
2022/10/22 08:43:40;;;;;;;37.80;25.00;;;;;;;;;;6245971;23;20341;-79
2022/10/22 08:46:08;;;;;;;40.30;25.05;;;;;;;;;;6246086;23;20431;-80
2022/10/22 08:48:36;;;;;;;35.58;23.70;;;;;;;;;;6246110;23;20836;-80
2022/10/22 08:51:02;;;;;;;33.22;22.02;;;;;;;;;;6245893;22;20075;-82
2022/10/22 08:53:37;;;;;;;31.17;20.83;;;;;;;;;;6219082;23;20474;-81
2022/10/22 08:56:03;;;;;;;29.33;20.58;;;;;;;;;;6246001;23;20000;-80
2022/10/22 08:58:41;;;;;;;32.65;20.85;;;;;;;;;;6246471;23;20011;-79
2022/10/22 09:01:13;;;;;;;31.08;20.55;;;;;;;;;;6246328;22;20051;-80
2022/10/22 09:03:54;;;;;;;28.20;17.55;;;;;;;;;;6245718;23;20004;-80
2022/10/22 09:06:24;;;;;;;26.38;18.48;;;;;;;;;;6246004;23;20023;-81
2022/10/22 09:08:51;;;;;;;28.25;19.27;;;;;;;;;;6245856;23;20000;-80
2022/10/22 09:11:22;;;;;;;26.55;16.95;;;;;;;;;;6245970;22;20083;-81
2022/10/22 09:13:49;;;;;;;27.83;17.48;;;;;;;;;;6245931;23;20002;-81
2022/10/22 09:16:28;;;;;;;25.88;15.50;;;;;;;;;;6245261;23;20012;-77
2022/10/22 09:19:13;;;;;;;24.80;16.27;;;;;;;;;;6245775;23;20390;-84
2022/10/22 09:21:41;;;;;;;15.57;10.15;;;;;;;;;;6245945;22;20008;-80
2022/10/22 09:24:20;;;;;;;8.13;6.80;;;;;;;;;;6246164;23;20004;-80
2022/10/22 09:26:45;;;;;;;7.95;6.47;;;;;;;;;;6246101;23;20000;-85
2022/10/22 09:29:22;;;;;;;9.02;5.10;;;;;;;;;;6246176;23;20011;-82
2022/10/22 09:31:47;;;;;;;6.72;5.10;;;;;;;;;;6218885;23;20092;-82
2022/10/22 09:34:14;;;;;;;6.57;4.78;;;;;;;;;;6219419;23;20397;-82
2022/10/22 09:36:40;;;;;;;8.70;5.85;;;;;;;;;;6245972;23;20088;-80
2022/10/22 09:39:21;;;;;;;8.27;5.30;;;;;;;;;;6245776;23;20047;-82
2022/10/22 09:41:46;;;;;;;11.88;5.32;;;;;;;;;;6219123;23;20011;-81
2022/10/22 09:44:12;;;;;;;7.60;4.95;;;;;;;;;;6248082;23;20000;-82
2022/10/22 09:46:44;;;;;;;6.82;5.28;;;;;;;;;;6248025;23;20075;-80
2022/10/22 09:49:13;;;;;;;4.57;3.13;;;;;;;;;;6248100;23;20004;-87
2022/10/22 09:51:49;;;;;;;3.27;2.47;;;;;;;;;;6220931;23;20035;-88
2022/10/22 09:54:25;;;;;;;2.10;1.90;;;;;;;;;;6248635;23;20000;-90
2022/10/22 09:56:52;;;;;;;2.13;1.92;;;;;;;;;;6248318;23;20001;-84
2022/10/22 09:59:23;;;;;;;3.03;2.22;;;;;;;;;;6248339;23;20008;-90
2022/10/22 10:01:56;;;;;;;4.22;1.92;;;;;;;;;;6248930;22;20438;-80
2022/10/22 10:04:21;;;;;;;2.60;2.40;;;;;;;;;;6248782;23;20027;-86
2022/10/22 10:06:54;;;;;;;6.57;3.40;;;;;;;;;;6248100;23;20416;-87
2022/10/22 10:09:23;;;;;;;2.42;2.10;;;;;;;;;;6247887;23;20305;-92
2022/10/22 10:11:55;;;;;;;2.90;2.20;;;;;;;;;;6248009;22;20494;-78
2022/10/22 10:14:39;;;;;;;4.50;2.75;;;;;;;;;;6247594;23;20451;-77
2022/10/22 10:17:27;;;;;;;2.63;2.40;;;;;;;;;;6247329;23;20489;-79
2022/10/22 10:20:04;;;;;;;4.95;2.55;;;;;;;;;;6247337;22;20008;-83
2022/10/22 10:22:52;;;;;;;4.70;3.10;;;;;;;;;;6220887;23;20015;-79
2022/10/22 10:25:30;;;;;;;4.50;2.75;;;;;;;;;;6247760;23;20008;-79
2022/10/22 10:28:04;;;;;;;3.22;2.70;;;;;;;;;;6220564;23;20004;-85
2022/10/22 10:30:31;;;;;;;4.70;2.63;;;;;;;;;;6247538;22;20071;-79
2022/10/22 10:33:18;;;;;;;3.72;2.53;;;;;;;;;;6247165;23;20007;-80
2022/10/22 10:36:02;;;;;;;3.95;2.83;;;;;;;;;;6247546;23;20004;-79
2022/10/22 10:38:46;;;;;;;3.42;2.70;;;;;;;;;;6247533;23;20007;-82
2022/10/22 10:41:30;;;;;;;3.90;2.35;;;;;;;;;;6220551;23;20147;-81
2022/10/22 10:44:22;;;;;;;3.42;2.60;;;;;;;;;;6247431;23;20047;-79
2022/10/22 10:47:16;;;;;;;4.47;2.88;;;;;;;;;;6247713;23;20007;-86
2022/10/22 10:49:42;;;;;;;4.53;3.60;;;;;;;;;;6247852;23;20000;-79
2022/10/22 10:52:16;;;;;;;5.53;2.88;;;;;;;;;;6247059;23;20015;-81
2022/10/22 10:54:54;;;;;;;3.97;2.53;;;;;;;;;;6246835;23;20008;-73
2022/10/22 10:57:54;;;;;;;3.47;3.05;;;;;;;;;;6246793;23;20008;-72
2022/10/22 11:00:21;;;;;;;15.68;9.15;;;;;;;;;;6167306;22;20094;-76
2022/10/22 11:03:13;;;;;;;5.03;3.10;;;;;;;;;;6247483;23;20005;-76
2022/10/22 11:05:41;;;;;;;3.80;2.58;;;;;;;;;;6246620;23;20004;-74
2022/10/22 11:08:13;;;;;;;3.55;2.50;;;;;;;;;;6247039;23;20012;-76
2022/10/22 11:10:45;;;;;;;4.03;2.75;;;;;;;;;;6246143;22;20427;-72
2022/10/22 11:13:27;;;;;;;5.22;2.88;;;;;;;;;;6247338;23;20075;-75
2022/10/22 11:16:29;;;;;;;3.90;2.78;;;;;;;;;;6246988;23;20066;-75
2022/10/22 11:19:18;;;;;;;2.33;2.13;;;;;;;;;;6246752;23;20016;-76
2022/10/22 11:22:03;;;;;;;2.38;1.80;;;;;;;;;;6247169;22;20062;-77
2022/10/22 11:24:46;;;;;;;2.53;2.17;;;;;;;;;;6247532;23;20087;-77
2022/10/22 11:27:35;;;;;;;2.65;1.90;;;;;;;;;;6247011;23;20004;-76
2022/10/22 11:30:07;;;;;;;1.70;1.60;;;;;;;;;;6247098;22;20011;-78
2022/10/22 11:32:33;;;;;;;5.40;3.10;;;;;;;;;;6247004;23;20008;-77
2022/10/22 11:35:04;;;;;;;6.38;4.88;;;;;;;;;;6246804;23;20008;-77
2022/10/22 11:37:33;;;;;;;4.18;3.03;;;;;;;;;;6221602;23;20043;-76
2022/10/22 11:40:20;;;;;;;2.50;2.30;;;;;;;;;;6247327;22;20019;-76
2022/10/22 11:43:09;;;;;;;2.85;2.20;;;;;;;;;;6220205;23;20012;-76
2022/10/22 11:45:40;;;;;;;2.10;1.90;;;;;;;;;;6094400;23;20007;-76
2022/10/22 11:48:06;;;;;;;3.65;1.85;;;;;;;;;;6232782;23;20082;-77
2022/10/22 11:50:43;;;;;;;2.67;1.40;;;;;;;;;;6247716;22;20035;-88
2022/10/22 11:53:11;;;;;;;3.58;1.60;;;;;;;;;;6246933;23;20106;-78
2022/10/22 11:55:50;;;;;;;2.95;1.45;;;;;;;;;;6247425;23;20412;-79
2022/10/22 11:59:04;;;;;;;1.65;1.55;;;;;;;;;;6232444;23;20027;-77
2022/10/22 12:01:54;;;;;;;2.03;1.70;;;;;;;;;;6202666;22;20091;-78
2022/10/22 12:04:39;;;;;;;2.22;2.00;;;;;;;;;;6218821;23;20088;-79
2022/10/22 12:07:35;;;;;;;2.17;1.90;;;;;;;;;;6220721;23;20004;-85
2022/10/22 12:10:15;;;;;;;2.53;1.90;;;;;;;;;;6247717;22;20055;-87
2022/10/22 12:12:40;;;;;;;;;;;;;;;;;;6226135;23;20004;-79
2022/10/22 12:15:25;;;;;;;2.00;1.80;;;;;;;;;;6253188;23;19914;-78
2022/10/22 12:17:59;;;;;;;2.80;2.10;;;;;;;;;;6252418;23;20004;-80
2022/10/22 12:20:26;;;;;;;2.33;2.10;;;;;;;;;;6249394;22;20000;-81
2022/10/22 12:22:52;;;;;;;2.20;2.00;;;;;;;;;;6195794;23;20008;-87
2022/10/22 12:25:22;;;;;;;3.50;1.85;;;;;;;;;;6220644;23;20004;-82
2022/10/22 12:27:53;;;;;;;2.38;2.10;;;;;;;;;;6219283;23;20011;-77
2022/10/22 12:30:26;;;;;;;2.67;1.98;;;;;;;;;;6246993;22;20004;-87
2022/10/22 12:32:55;;;;;;;3.10;2.13;;;;;;;;;;6222053;23;20007;-88
2022/10/22 12:35:27;;;;;;;2.63;2.10;;;;;;;;;;6247888;23;20040;-78
2022/10/22 12:38:00;;;;;;;3.90;2.30;;;;;;;;;;6221499;23;20245;-79
2022/10/22 12:40:32;;;;;;;2.75;2.42;;;;;;;;;;6220597;23;20008;-85
2022/10/22 12:43:38;;;;;;;2.50;2.10;;;;;;;;;;6221217;23;20412;-84
2022/10/22 12:46:12;;;;;;;3.33;2.28;;;;;;;;;;6184697;23;20031;-88
2022/10/22 12:48:41;;;;;;;2.40;2.20;;;;;;;;;;6183901;23;20060;-79
2022/10/22 12:51:10;;;;;;;4.50;2.37;;;;;;;;;;6158905;23;20083;-84
2022/10/22 12:53:41;;;;;;;2.63;2.42;;;;;;;;;;6184312;23;20101;-77
2022/10/22 12:56:16;;;;;;;2.92;2.67;;;;;;;;;;6159379;23;20001;-78
2022/10/22 12:58:52;;;;;;;2.85;2.42;;;;;;;;;;6184021;23;20036;-89
2022/10/22 13:01:23;;;;;;;3.33;2.25;;;;;;;;;;6183817;23;20443;-82
2022/10/22 13:04:02;;;;;;;4.55;2.20;;;;;;;;;;6184989;23;20009;-83
2022/10/22 13:06:27;;;;;;;3.47;2.65;;;;;;;;;;6184138;23;20013;-81
2022/10/22 13:09:01;;;;;;;3.92;2.35;;;;;;;;;;6183581;23;20425;-88
2022/10/22 13:11:40;;;;;;;2.70;2.50;;;;;;;;;;6183812;23;20029;-85
2022/10/22 13:14:21;;;;;;;2.30;2.10;;;;;;;;;;6186462;23;20012;-79
2022/10/22 13:17:24;;;;;;;2.38;2.15;;;;;;;;;;6215354;23;20007;-84
2022/10/22 13:19:52;;;;;;;3.40;2.88;;;;;;;;;;6248471;22;20043;-81
2022/10/22 13:22:34;;;;;;;3.35;3.05;;;;;;;;;;6248621;23;20062;-87
2022/10/22 13:25:12;;;;;;;3.40;3.10;;;;;;;;;;6248843;23;20036;-84
2022/10/22 13:28:07;;;;;;;2.70;2.50;;;;;;;;;;6248873;23;20011;-79
2022/10/22 13:30:37;;;;;;;2.47;2.28;;;;;;;;;;6248698;22;20004;-81
2022/10/22 13:33:05;;;;;;;2.72;2.38;;;;;;;;;;6249384;23;20000;-83
2022/10/22 13:35:37;;;;;;;1.98;1.83;;;;;;;;;;6248648;23;20004;-82
2022/10/22 13:38:13;;;;;;;2.17;1.98;;;;;;;;;;6221281;23;20031;-83
2022/10/22 13:40:42;;;;;;;2.35;2.00;;;;;;;;;;6248832;22;20378;-86
2022/10/22 13:43:07;;;;;;;1.90;1.80;;;;;;;;;;6222360;23;20004;-86
2022/10/22 13:45:32;;;;;;;2.60;1.88;;;;;;;;;;6248965;23;20112;-81
2022/10/22 13:47:58;;;;;;;2.03;1.63;;;;;;;;;;6247690;23;20424;-81
2022/10/22 13:50:26;;;;;;;1.98;1.70;;;;;;;;;;6248323;22;20424;-82
2022/10/22 13:52:55;;;;;;;1.60;1.50;;;;;;;;;;6247560;23;20008;-82
2022/10/22 13:55:26;;;;;;;1.55;1.45;;;;;;;;;;6248116;23;20000;-81
2022/10/22 13:58:12;;;;;;;1.58;1.40;;;;;;;;;;6248425;23;20007;-81
2022/10/22 14:00:41;;;;;;;1.33;1.23;;;;;;;;;;6221276;23;20028;-81
2022/10/22 14:03:11;;;;;;;1.70;1.60;;;;;;;;;;6247968;23;20008;-81
2022/10/22 14:05:37;;;;;;;2.53;2.13;;;;;;;;;;6248479;23;20011;-78
2022/10/22 14:08:04;;;;;;;1.98;1.77;;;;;;;;;;6221314;23;20107;-78
2022/10/22 14:10:30;;;;;;;3.22;1.50;;;;;;;;;;6220998;23;20087;-77
2022/10/22 14:12:57;;;;;;;1.90;1.40;;;;;;;;;;6248070;23;20103;-80
2022/10/22 14:15:27;;;;;;;2.10;1.33;;;;;;;;;;6221333;23;20004;-78
2022/10/22 14:17:56;;;;;;;1.60;1.50;;;;;;;;;;6247873;23;20086;-84
2022/10/22 14:20:25;;;;;;;1.38;1.27;;;;;;;;;;6221135;23;20339;-84
2022/10/22 14:22:54;;;;;;;1.40;1.30;;;;;;;;;;6221969;23;20040;-81
2022/10/22 14:25:23;;;;;;;1.75;1.50;;;;;;;;;;6247962;23;20427;-78
2022/10/22 14:27:52;;;;;;;1.73;1.20;;;;;;;;;;6221015;23;20090;-83
2022/10/22 14:30:23;;;;;;;2.65;1.60;;;;;;;;;;6222508;23;20027;-79
2022/10/22 14:32:49;;;;;;;1.45;1.35;;;;;;;;;;6247992;23;20090;-78
2022/10/22 16:26:10;;;;;;;2.35;1.00;;;;;;;;;;6217605;23;20008;-84
2022/10/22 16:28:35;;;;;;;1.58;1.00;;;;;;;;;;6219550;23;20119;-85
2022/10/22 16:31:03;;;;;;;1.00;0.90;;;;;;;;;;6247243;23;20426;-84
2022/10/22 16:33:29;;;;;;;2.05;1.20;;;;;;;;;;6247634;22;20331;-83
2022/10/22 16:35:55;;;;;;;0.90;0.90;;;;;;;;;;6247430;23;20004;-80
2022/10/22 16:38:20;;;;;;;0.70;0.70;;;;;;;;;;6247371;23;20004;-86
2022/10/22 16:40:46;;;;;;;1.63;0.95;;;;;;;;;;6248461;23;20028;-86
2022/10/22 16:43:11;;;;;;;1.17;0.80;;;;;;;;;;6220398;23;20184;-84
2022/10/22 16:45:37;;;;;;;2.25;0.95;;;;;;;;;;6247121;23;20391;-84
2022/10/22 16:48:03;;;;;;;0.90;0.90;;;;;;;;;;6247333;23;20030;-81
2022/10/22 16:50:28;;;;;;;2.13;1.10;;;;;;;;;;6220755;23;20011;-80
2022/10/22 16:52:54;;;;;;;1.13;1.13;;;;;;;;;;6247113;22;20419;-87
2022/10/22 16:55:20;;;;;;;0.98;0.98;;;;;;;;;;6248518;23;20000;-80
2022/10/22 16:57:50;;;;;;;2.70;0.95;;;;;;;;;;6247402;23;20079;-79
2022/10/22 17:00:16;;;;;;;1.40;0.93;;;;;;;;;;6247778;23;20000;-81
2022/10/22 17:02:49;;;;;;;0.98;0.98;;;;;;;;;;6249626;22;20086;-88
2022/10/22 17:05:14;;;;;;;1.25;1.25;;;;;;;;;;6246630;23;20008;-80
2022/10/22 17:07:40;;;;;;;0.82;0.82;;;;;;;;;;6246559;23;20062;-77
2022/10/22 17:10:07;;;;;;;0.93;0.90;;;;;;;;;;6246274;23;20001;-78
2022/10/22 17:12:34;;;;;;;1.05;0.95;;;;;;;;;;6245999;22;20012;-77
2022/10/22 17:15:01;;;;;;;3.13;1.10;;;;;;;;;;6246181;23;20057;-78
2022/10/22 17:17:26;;;;;;;1.05;0.93;;;;;;;;;;6246119;23;20004;-77
2022/10/22 17:19:52;;;;;;;1.95;0.90;;;;;;;;;;6246081;23;20312;-78
2022/10/22 17:22:17;;;;;;;1.98;1.80;;;;;;;;;;6246096;22;20007;-81
2022/10/22 17:24:43;;;;;;;1.95;1.80;;;;;;;;;;6246125;23;20372;-78
2022/10/22 17:27:09;;;;;;;1.33;1.23;;;;;;;;;;6219116;23;20339;-78
2022/10/22 17:29:35;;;;;;;1.40;1.30;;;;;;;;;;6246284;23;20374;-80
2022/10/22 17:32:01;;;;;;;1.63;1.48;;;;;;;;;;6246251;22;20008;-83
2022/10/22 17:34:29;;;;;;;1.20;1.10;;;;;;;;;;6246199;23;20075;-80
2022/10/22 17:36:58;;;;;;;3.53;1.38;;;;;;;;;;6246107;23;20035;-78
2022/10/22 17:39:24;;;;;;;;;;;;;;;;;;6246669;23;20000;-80
2022/10/22 17:41:49;;;;;;;1.75;1.38;;;;;;;;;;6246232;22;19914;-78
2022/10/22 17:44:15;;;;;;;1.30;1.20;;;;;;;;;;6246040;23;20076;-78
2022/10/22 17:46:42;;;;;;;1.45;1.02;;;;;;;;;;6246118;23;20485;-79
2022/10/22 17:49:16;;;;;;;1.50;1.30;;;;;;;;;;6219318;23;20004;-79
2022/10/22 17:51:41;;;;;;;2.28;1.15;;;;;;;;;;6219377;22;20008;-82
2022/10/22 17:54:07;;;;;;;3.00;1.65;;;;;;;;;;6246029;23;20074;-81
2022/10/22 17:56:32;;;;;;;1.30;1.20;;;;;;;;;;6246131;23;20004;-82
2022/10/22 17:59:00;;;;;;;1.10;0.90;;;;;;;;;;6246173;23;20038;-79
2022/10/22 18:01:31;;;;;;;3.00;1.13;;;;;;;;;;6246296;23;20062;-83
2022/10/22 18:04:07;;;;;;;2.08;1.70;;;;;;;;;;6247235;22;20036;-82
2022/10/22 18:06:33;;;;;;;1.60;1.50;;;;;;;;;;6221349;23;20004;-81
2022/10/22 18:09:03;;;;;;;1.27;1.17;;;;;;;;;;6248269;23;20032;-81
2022/10/22 18:11:30;;;;;;;1.55;1.45;;;;;;;;;;6248448;23;20008;-81
2022/10/22 18:13:56;;;;;;;3.10;1.30;;;;;;;;;;6251197;22;20000;-82
2022/10/22 18:16:22;;;;;;;0.93;0.93;;;;;;;;;;6222166;23;20004;-83
2022/10/22 18:18:49;;;;;;;1.27;1.17;;;;;;;;;;6248203;23;20328;-83
2022/10/22 18:21:16;;;;;;;4.65;1.27;;;;;;;;;;6248484;23;20003;-82
2022/10/22 18:23:42;;;;;;;1.23;1.13;;;;;;;;;;6248486;22;20000;-78
2022/10/22 18:26:07;;;;;;;1.73;1.42;;;;;;;;;;6248569;23;20008;-79
2022/10/22 18:28:33;;;;;;;2.25;1.80;;;;;;;;;;6248212;23;20000;-78
2022/10/22 18:30:59;;;;;;;1.90;1.80;;;;;;;;;;6248038;23;20004;-76
2022/10/22 18:33:24;;;;;;;1.83;1.73;;;;;;;;;;6247721;22;20000;-77
2022/10/22 18:35:53;;;;;;;1.30;1.20;;;;;;;;;;6248071;23;20083;-79
2022/10/22 18:38:20;;;;;;;1.10;1.00;;;;;;;;;;6247682;23;20038;-77
2022/10/22 18:40:47;;;;;;;2.15;1.33;;;;;;;;;;6247833;23;20415;-79
